Accueil
METAR-TAF:

METAR-TAF

Aéroports :

Dübendorf, Suisse

latitude: 47-23-55N, longitude: 8-38-53E, altitude: 448 m

Observation

Le bulletin a été fait il y a 19 minutes, à 08:20 UTC
Vent 8 kt de ouest/sud-ouest, variant entre sud/sud-ouest et ouest
Température 4°C
Humidité 81%
Pression 1023 hPa
Visibilité: 7000 m
Nuages épars à une hauteur de 1500 ft
Nuages fragmentés à une hauteur de 2100 ft
pluie

METAR: LSMD 190820Z 24008KT 210V280 7000 RA SCT015 BKN021 04/01 Q1023 RMK WHT

Heure: 09:39 (08:39 UTC)


TAF: absent

Observations et prévisions météorologiques de plus de 4000 aéroports (messages METAR et TAF).

Les stations disponibles sont représentées par des disques jaunes et rouges sur la carte.

Passer la souris dessus pour voir le nom de la station.

Cliquer dessus pour voir les observations et prévisions météorologiques.

Pour changer de carte: cliquez sur les boutons verts avec une croix noire pour zoomer, sur le bouton vert avec un tiret pour effectuer un zoom arrière, ou sur les flèches vertes pour les cartes adjacentes.


METAR-TAF: